createdAt,value
2023-05-14T00:01:45.027Z,6.46
2023-05-14T00:04:12.581Z,6.39
2023-05-14T00:06:40.147Z,6.32
2023-05-14T00:09:07.700Z,6.29
2023-05-14T00:11:35.254Z,6.26
2023-05-14T00:14:02.812Z,6.22
2023-05-14T00:16:30.655Z,6.16
2023-05-14T00:18:58.386Z,6.12
2023-05-14T00:21:25.956Z,6.06
2023-05-14T00:23:53.500Z,6.00
2023-05-14T00:26:20.996Z,5.94
2023-05-14T00:28:48.552Z,5.88
2023-05-14T00:31:16.096Z,5.83
2023-05-14T00:33:43.615Z,5.78
2023-05-14T00:36:11.172Z,5.72
2023-05-14T00:38:38.713Z,5.67
2023-05-14T00:41:06.294Z,5.61
2023-05-14T00:43:33.822Z,5.56
2023-05-14T00:46:01.636Z,5.51
2023-05-14T00:48:29.575Z,5.47
2023-05-14T00:50:57.540Z,5.44
2023-05-14T00:53:25.264Z,5.44
2023-05-14T00:55:52.950Z,5.45
2023-05-14T00:58:21.934Z,5.45
2023-05-14T01:00:49.488Z,5.45
2023-05-14T01:03:20.150Z,5.47
2023-05-14T01:05:58.773Z,5.49
2023-05-14T01:08:50.634Z,5.50
2023-05-14T01:11:53.686Z,5.51
2023-05-14T01:14:28.610Z,5.55
2023-05-14T01:16:59.041Z,5.58
2023-05-14T01:19:41.102Z,5.62
2023-05-14T01:22:08.863Z,5.65
2023-05-14T01:24:36.461Z,5.66
2023-05-14T01:27:29.716Z,5.66
2023-05-14T01:30:11.396Z,5.64
2023-05-14T01:32:40.639Z,5.62
2023-05-14T01:35:09.808Z,5.59
2023-05-14T01:37:38.747Z,5.54
2023-05-14T01:40:07.182Z,5.51
2023-05-14T01:42:35.383Z,5.46
2023-05-14T01:45:03.294Z,5.41
2023-05-14T01:47:30.842Z,5.36
2023-05-14T01:49:58.593Z,5.32
2023-05-14T01:52:26.181Z,5.28
2023-05-14T01:54:53.689Z,5.23
2023-05-14T01:57:21.227Z,5.17
2023-05-14T01:59:48.758Z,5.11
2023-05-14T02:02:16.293Z,5.04
2023-05-14T02:04:46.489Z,4.97
2023-05-14T02:07:13.968Z,4.88
2023-05-14T02:09:41.781Z,4.78
2023-05-14T02:12:11.339Z,4.71
2023-05-14T02:14:38.901Z,4.65
2023-05-14T02:17:06.452Z,4.60
2023-05-14T02:19:34.022Z,4.55
2023-05-14T02:22:01.547Z,4.49
2023-05-14T02:24:29.195Z,4.43
2023-05-14T02:26:56.777Z,4.41
2023-05-14T02:29:24.456Z,4.38
2023-05-14T02:31:52.159Z,4.34
2023-05-14T02:34:19.770Z,4.32
2023-05-14T02:36:47.286Z,4.28
2023-05-14T02:39:14.840Z,4.25
2023-05-14T02:41:42.464Z,4.25
2023-05-14T02:44:09.993Z,4.27
2023-05-14T02:46:37.610Z,4.25
2023-05-14T02:49:05.150Z,4.22
2023-05-14T02:51:32.661Z,4.20
2023-05-14T02:54:00.232Z,4.17
2023-05-14T02:56:27.816Z,4.15
2023-05-14T02:58:55.357Z,4.13
2023-05-14T03:01:23.610Z,4.12
2023-05-14T03:03:51.622Z,4.09
2023-05-14T03:06:20.001Z,4.06
2023-05-14T03:08:47.565Z,4.03
2023-05-14T03:11:15.218Z,4.03
2023-05-14T03:13:42.784Z,4.04
2023-05-14T03:16:10.348Z,4.06
2023-05-14T03:18:37.946Z,4.07
2023-05-14T03:21:05.559Z,4.08
2023-05-14T03:23:33.137Z,4.12
2023-05-14T03:26:01.319Z,4.17
2023-05-14T03:28:28.879Z,4.26
2023-05-14T03:30:56.616Z,4.35
2023-05-14T03:33:24.301Z,4.45
2023-05-14T03:35:52.028Z,4.57
2023-05-14T03:38:19.639Z,4.66
2023-05-14T03:40:47.249Z,4.74
2023-05-14T03:43:19.721Z,4.82
2023-05-14T03:45:47.301Z,4.92
2023-05-14T03:48:14.976Z,5.02
2023-05-14T03:50:42.690Z,5.16
2023-05-14T03:53:10.252Z,5.30
2023-05-14T03:55:37.847Z,5.43
2023-05-14T03:58:05.378Z,5.56
2023-05-14T04:00:32.982Z,5.65
2023-05-14T04:03:00.647Z,5.73
2023-05-14T04:05:30.218Z,5.81
2023-05-14T04:07:57.878Z,5.91
2023-05-14T04:10:25.517Z,6.01
2023-05-14T04:12:53.248Z,6.13
2023-05-14T04:15:20.917Z,6.25
2023-05-14T04:17:48.466Z,6.35
2023-05-14T04:20:18.868Z,6.46
2023-05-14T04:22:46.418Z,6.57
2023-05-14T04:25:14.028Z,6.65
2023-05-14T04:27:41.535Z,6.71
2023-05-14T04:30:11.582Z,6.77
2023-05-14T04:32:39.297Z,6.81
2023-05-14T04:35:07.762Z,6.86
2023-05-14T04:37:35.335Z,6.92
2023-05-14T04:40:04.488Z,6.97
2023-05-14T04:42:32.060Z,7.04
2023-05-14T04:44:59.594Z,7.11
2023-05-14T04:47:27.163Z,7.19
2023-05-14T04:49:54.678Z,7.28
2023-05-14T04:52:22.214Z,7.37
2023-05-14T04:54:51.269Z,7.47
2023-05-14T04:57:18.967Z,7.58
2023-05-14T04:59:46.578Z,7.68
2023-05-14T05:02:14.125Z,7.81
2023-05-14T05:04:41.740Z,7.94
2023-05-14T05:07:09.307Z,8.10
2023-05-14T05:09:36.896Z,8.27
2023-05-14T05:12:05.048Z,8.43
2023-05-14T05:14:32.588Z,8.59
2023-05-14T05:17:00.121Z,8.75
2023-05-14T05:19:39.723Z,8.90
2023-05-14T05:22:11.206Z,9.05
2023-05-14T05:24:38.823Z,9.20
2023-05-14T05:27:06.362Z,9.32
2023-05-14T05:29:34.644Z,9.46
2023-05-14T05:32:02.443Z,9.60
2023-05-14T05:34:29.988Z,9.72
2023-05-14T05:36:57.531Z,9.84
2023-05-14T05:39:25.225Z,9.99
2023-05-14T05:41:54.337Z,10.13
2023-05-14T05:44:21.876Z,10.27
2023-05-14T05:46:49.470Z,10.40
2023-05-14T05:49:17.136Z,10.54
2023-05-14T05:51:44.672Z,10.67
2023-05-14T05:54:12.238Z,10.79
2023-05-14T05:56:39.751Z,10.88
2023-05-14T05:59:07.295Z,10.99
2023-05-14T06:01:34.886Z,11.11
2023-05-14T06:04:02.399Z,11.21
2023-05-14T06:06:29.922Z,11.31
2023-05-14T06:08:57.437Z,11.41
2023-05-14T06:11:25.184Z,11.50
2023-05-14T06:13:52.751Z,11.61
2023-05-14T06:16:20.323Z,11.71
2023-05-14T06:18:47.929Z,11.82
2023-05-14T06:21:15.492Z,11.94
2023-05-14T06:23:43.094Z,12.08
2023-05-14T06:26:12.595Z,12.23
2023-05-14T06:28:40.135Z,12.43
2023-05-14T06:31:07.724Z,12.63
2023-05-14T06:33:35.334Z,12.79
2023-05-14T06:36:06.286Z,12.87
2023-05-14T06:38:33.874Z,12.99
2023-05-14T06:41:01.443Z,13.14
2023-05-14T06:43:29.119Z,13.32
2023-05-14T06:45:56.629Z,13.48
2023-05-14T06:48:24.495Z,13.61
2023-05-14T06:50:52.213Z,13.76
2023-05-14T06:53:19.737Z,13.87
2023-05-14T06:55:48.409Z,13.97
2023-05-14T06:58:15.977Z,14.06
2023-05-14T07:00:44.755Z,14.16
2023-05-14T07:03:12.314Z,14.24
2023-05-14T07:05:42.595Z,14.27
2023-05-14T07:08:10.160Z,14.37
2023-05-14T07:10:37.729Z,14.47
2023-05-14T07:13:05.703Z,14.60
2023-05-14T07:15:35.833Z,14.75
2023-05-14T07:18:03.689Z,14.89
2023-05-14T07:20:31.213Z,15.06
2023-05-14T07:22:58.731Z,15.25
2023-05-14T07:25:26.260Z,15.41
2023-05-14T07:27:53.776Z,15.46
2023-05-14T07:30:21.870Z,15.49
2023-05-14T07:32:49.773Z,15.50
2023-05-14T07:35:17.526Z,15.54
2023-05-14T07:37:45.075Z,15.62
2023-05-14T07:40:12.742Z,15.74
2023-05-14T07:42:40.585Z,15.87
2023-05-14T07:45:08.894Z,15.95
2023-05-14T07:47:36.620Z,16.03
2023-05-14T07:50:04.567Z,16.13
2023-05-14T07:52:32.221Z,16.23
2023-05-14T07:54:59.956Z,16.32
2023-05-14T07:57:27.530Z,16.41
2023-05-14T07:59:55.132Z,16.51
2023-05-14T08:02:22.748Z,16.60
2023-05-14T08:04:50.465Z,16.76
2023-05-14T08:07:18.026Z,16.90
2023-05-14T08:09:45.553Z,16.98
2023-05-14T08:12:14.351Z,17.06
2023-05-14T08:14:42.136Z,17.15
2023-05-14T08:17:09.898Z,17.15
2023-05-14T08:19:37.573Z,17.15
2023-05-14T08:22:05.246Z,17.26
2023-05-14T08:24:32.734Z,17.33
2023-05-14T08:27:00.278Z,17.47
2023-05-14T08:29:28.089Z,17.65
2023-05-14T08:31:55.700Z,17.86
2023-05-14T08:34:23.235Z,18.03
2023-05-14T08:36:50.759Z,18.16
2023-05-14T08:39:18.283Z,18.30
2023-05-14T08:41:45.883Z,18.47
2023-05-14T08:44:17.749Z,18.61
2023-05-14T08:46:45.778Z,18.63
2023-05-14T08:49:35.316Z,18.70
2023-05-14T08:52:03.120Z,18.71
2023-05-14T08:54:30.713Z,18.76
2023-05-14T08:56:58.825Z,18.87
2023-05-14T08:59:26.868Z,18.99
2023-05-14T09:01:56.291Z,19.14
2023-05-14T09:04:25.000Z,19.31
2023-05-14T09:06:53.819Z,19.44
2023-05-14T09:09:22.596Z,19.63
2023-05-14T09:11:52.181Z,19.78
2023-05-14T09:14:20.047Z,19.79
2023-05-14T09:16:51.338Z,19.89
2023-05-14T09:19:19.824Z,20.06
2023-05-14T09:21:49.260Z,20.27
2023-05-14T09:24:21.273Z,20.56
2023-05-14T09:26:53.812Z,20.85
2023-05-14T09:29:28.485Z,21.08
2023-05-14T09:31:57.964Z,21.12
2023-05-14T09:34:34.372Z,21.10
2023-05-14T09:37:06.802Z,21.33
2023-05-14T09:39:36.421Z,21.62
2023-05-14T09:42:04.861Z,21.82
2023-05-14T09:44:32.476Z,21.96
2023-05-14T09:46:59.988Z,22.07
2023-05-14T09:49:27.595Z,22.24
2023-05-14T09:51:55.219Z,22.56
2023-05-14T09:54:24.098Z,23.21
2023-05-14T09:56:52.545Z,24.39
2023-05-14T09:59:20.889Z,25.73
2023-05-14T10:01:49.821Z,26.98
2023-05-14T10:04:18.127Z,27.90
2023-05-14T10:06:48.297Z,28.54
2023-05-14T10:09:19.685Z,29.17
2023-05-14T10:11:50.133Z,29.85
2023-05-14T10:14:22.800Z,30.45
2023-05-14T10:16:51.426Z,31.13
2023-05-14T10:19:23.643Z,31.83
2023-05-14T10:21:57.182Z,32.46
2023-05-14T10:24:25.647Z,32.63
2023-05-14T10:26:53.844Z,32.71
2023-05-14T10:29:33.336Z,32.43
2023-05-14T10:32:04.953Z,32.02
2023-05-14T10:34:38.949Z,31.81
2023-05-14T10:37:09.435Z,31.23
2023-05-14T10:39:43.162Z,30.80
2023-05-14T10:42:12.366Z,30.66
2023-05-14T10:44:54.983Z,30.45
2023-05-14T10:47:23.090Z,30.52
2023-05-14T10:49:54.126Z,30.84
2023-05-14T10:52:22.233Z,31.16
2023-05-14T10:54:50.710Z,31.27
2023-05-14T10:57:20.693Z,31.43
2023-05-14T10:59:50.179Z,31.38
2023-05-14T11:02:23.538Z,31.25
2023-05-14T11:05:07.838Z,31.19
2023-05-14T11:07:40.762Z,31.13
2023-05-14T11:10:09.638Z,30.96
2023-05-14T11:12:42.456Z,30.61
2023-05-14T11:15:12.269Z,30.30
2023-05-14T11:17:41.643Z,30.18
2023-05-14T11:20:10.857Z,29.97
2023-05-14T11:22:39.727Z,29.75
2023-05-14T11:25:08.330Z,29.52
2023-05-14T11:27:38.562Z,29.59
2023-05-14T11:30:13.419Z,29.66
2023-05-14T11:32:41.888Z,29.58
2023-05-14T11:35:09.677Z,29.21
2023-05-14T11:37:37.219Z,28.86
2023-05-14T11:40:08.350Z,28.72
2023-05-14T11:42:36.830Z,28.75
2023-05-14T11:45:10.448Z,28.85
2023-05-14T11:47:38.030Z,29.00
2023-05-14T11:50:07.949Z,29.39
2023-05-14T11:52:39.108Z,30.10
2023-05-14T11:55:10.732Z,30.80
2023-05-14T11:57:38.387Z,31.39
2023-05-14T12:00:11.345Z,31.88
2023-05-14T12:02:39.259Z,32.39
2023-05-14T12:05:10.168Z,32.69
2023-05-14T12:07:39.009Z,33.04
2023-05-14T12:10:06.734Z,33.48
2023-05-14T12:12:36.134Z,33.98
2023-05-14T12:15:11.360Z,33.95
2023-05-14T12:17:39.510Z,34.08
2023-05-14T12:20:11.635Z,34.27
2023-05-14T12:22:41.504Z,34.37
2023-05-14T12:25:13.114Z,34.28
2023-05-14T12:27:41.475Z,33.85
2023-05-14T12:32:39.998Z,33.94
2023-05-14T12:35:08.448Z,34.20
2023-05-14T12:37:36.258Z,34.52
2023-05-14T12:40:04.811Z,34.62
2023-05-14T12:42:32.370Z,34.31
2023-05-14T12:44:59.898Z,33.86
2023-05-14T12:47:27.499Z,33.77
2023-05-14T12:49:55.078Z,34.10
2023-05-14T12:52:36.806Z,34.78
2023-05-14T12:55:09.077Z,35.53
2023-05-14T12:57:37.824Z,35.56
2023-05-14T13:00:06.282Z,35.48
2023-05-14T13:02:43.044Z,34.93
2023-05-14T13:05:12.009Z,34.12
2023-05-14T13:07:39.661Z,33.93
2023-05-14T13:10:07.690Z,33.86
2023-05-14T13:12:35.240Z,33.73
2023-05-14T13:15:02.827Z,33.07
2023-05-14T13:17:33.309Z,32.38
2023-05-14T13:20:01.061Z,31.45
2023-05-14T13:22:28.620Z,30.71
2023-05-14T13:24:56.158Z,30.49
2023-05-14T13:27:23.895Z,30.57
2023-05-14T13:29:51.623Z,30.36
2023-05-14T13:32:19.130Z,30.16
2023-05-14T13:34:46.662Z,30.08
2023-05-14T13:37:14.283Z,29.95
2023-05-14T13:39:41.814Z,29.51
2023-05-14T13:42:09.329Z,29.16
2023-05-14T13:44:37.048Z,28.64
2023-05-14T13:47:05.063Z,28.15
2023-05-14T13:49:32.656Z,27.78
2023-05-14T13:52:00.274Z,27.48
2023-05-14T13:54:27.825Z,27.31
2023-05-14T13:56:55.531Z,27.05
2023-05-14T13:59:23.107Z,26.79
2023-05-14T14:01:50.669Z,26.42
2023-05-14T14:04:18.237Z,26.17
2023-05-14T14:06:45.753Z,26.09
2023-05-14T14:09:13.286Z,26.03
2023-05-14T14:11:40.946Z,25.99
2023-05-14T14:14:08.472Z,25.97
2023-05-14T14:16:36.054Z,25.88
2023-05-14T14:19:03.813Z,25.72
2023-05-14T14:21:31.451Z,25.43
2023-05-14T14:23:58.993Z,25.23
2023-05-14T14:26:26.602Z,25.13
2023-05-14T14:28:54.166Z,24.95
2023-05-14T14:31:21.980Z,24.72
2023-05-14T14:33:49.621Z,24.43
2023-05-14T14:36:17.157Z,24.27
2023-05-14T14:38:44.732Z,24.16
2023-05-14T14:41:12.366Z,24.02
2023-05-14T14:43:40.801Z,23.85
2023-05-14T14:46:08.366Z,23.64
2023-05-14T14:48:36.374Z,23.38
2023-05-14T14:51:05.690Z,23.13
2023-05-14T14:53:33.676Z,22.88
2023-05-14T14:56:01.844Z,22.65
2023-05-14T14:58:29.519Z,22.47
2023-05-14T15:00:57.521Z,22.37
2023-05-14T15:03:25.945Z,22.34
2023-05-14T15:05:53.968Z,22.28
2023-05-14T15:08:26.019Z,22.22
2023-05-14T15:10:54.879Z,22.14
2023-05-14T15:13:22.812Z,22.07
2023-05-14T15:15:51.346Z,22.00
2023-05-14T15:18:18.973Z,21.92
2023-05-14T15:20:49.705Z,21.82
2023-05-14T15:23:17.353Z,21.72
2023-05-14T15:25:44.946Z,21.61
2023-05-14T15:28:12.631Z,21.47
2023-05-14T15:30:40.201Z,21.39
2023-05-14T15:33:08.097Z,21.35
2023-05-14T15:35:35.787Z,21.23
2023-05-14T15:38:03.482Z,21.10
2023-05-14T15:40:31.009Z,21.04
2023-05-14T15:42:58.664Z,20.98
2023-05-14T15:45:26.237Z,20.86
2023-05-14T15:47:53.988Z,20.74
2023-05-14T15:50:21.662Z,20.65
2023-05-14T15:52:49.368Z,20.54
2023-05-14T15:55:16.984Z,20.45
2023-05-14T15:57:47.615Z,20.38
2023-05-14T16:00:15.788Z,20.33
2023-05-14T16:02:43.434Z,20.29
2023-05-14T16:05:11.191Z,20.20
2023-05-14T16:07:38.854Z,20.14
2023-05-14T16:10:07.074Z,20.06
2023-05-14T16:12:34.749Z,19.99
2023-05-14T16:15:02.324Z,19.91
2023-05-14T16:17:30.011Z,19.85
2023-05-14T16:19:57.574Z,19.79
2023-05-14T16:22:25.263Z,19.72
2023-05-14T16:24:53.018Z,19.67
2023-05-14T16:27:20.525Z,19.62
2023-05-14T16:29:48.030Z,19.58
2023-05-14T16:32:15.645Z,19.53
2023-05-14T16:34:43.204Z,19.49
2023-05-14T16:37:13.050Z,19.46
2023-05-14T16:39:40.791Z,19.44
2023-05-14T16:42:08.404Z,19.42
2023-05-14T16:44:35.982Z,19.39
2023-05-14T16:47:04.313Z,19.33
2023-05-14T16:49:31.833Z,19.25
2023-05-14T16:51:59.402Z,19.18
2023-05-14T16:54:27.018Z,19.09
2023-05-14T16:56:54.573Z,18.98
2023-05-14T16:59:22.109Z,18.90
2023-05-14T17:01:49.820Z,18.81
2023-05-14T17:04:17.454Z,18.74
2023-05-14T17:06:46.345Z,18.67
2023-05-14T17:09:13.905Z,18.58
2023-05-14T17:11:41.443Z,18.49
2023-05-14T17:14:07.909Z,18.42
2023-05-14T17:16:35.404Z,18.33
2023-05-14T17:19:01.905Z,18.25
2023-05-14T17:21:29.492Z,18.19
2023-05-14T17:23:57.172Z,18.13
2023-05-14T17:26:24.940Z,18.07
2023-05-14T17:28:52.491Z,18.02
2023-05-14T17:31:20.093Z,17.98
2023-05-14T17:33:47.692Z,17.93
2023-05-14T17:36:15.273Z,17.89
2023-05-14T17:38:42.825Z,17.84
2023-05-14T17:41:10.402Z,17.78
2023-05-14T17:43:37.975Z,17.72
2023-05-14T17:46:05.570Z,17.67
2023-05-14T17:48:33.127Z,17.62
2023-05-14T17:51:00.720Z,17.54
2023-05-14T17:53:28.285Z,17.44
2023-05-14T17:55:55.882Z,17.26
2023-05-14T17:58:24.161Z,17.05
2023-05-14T18:00:51.782Z,16.80
2023-05-14T18:03:19.683Z,16.54
2023-05-14T18:05:47.426Z,16.30
2023-05-14T18:08:14.998Z,16.07
2023-05-14T18:10:42.615Z,15.85
2023-05-14T18:13:10.153Z,15.68
2023-05-14T18:15:37.745Z,15.48
2023-05-14T18:18:05.783Z,15.26
2023-05-14T18:20:35.331Z,15.03
2023-05-14T18:23:03.386Z,14.85
2023-05-14T18:25:30.994Z,14.69
2023-05-14T18:27:59.043Z,14.55
2023-05-14T18:30:26.581Z,14.45
2023-05-14T18:32:54.166Z,14.38
2023-05-14T18:35:21.872Z,14.33
2023-05-14T18:37:49.604Z,14.29
2023-05-14T18:40:18.732Z,14.24
2023-05-14T18:42:46.651Z,14.20
2023-05-14T18:45:14.241Z,14.15
2023-05-14T18:47:41.920Z,14.10
2023-05-14T18:50:10.042Z,14.02
2023-05-14T18:52:37.652Z,13.92
2023-05-14T18:55:05.699Z,13.83
2023-05-14T18:57:33.399Z,13.77
2023-05-14T19:00:00.970Z,13.74
2023-05-14T19:02:28.789Z,13.71
2023-05-14T19:04:56.572Z,13.70
2023-05-14T19:07:24.352Z,13.68
2023-05-14T19:09:52.312Z,13.65
2023-05-14T19:12:19.855Z,13.60
2023-05-14T19:14:47.395Z,13.56
2023-05-14T19:17:14.992Z,13.52
2023-05-14T19:19:42.490Z,13.49
2023-05-14T19:22:10.062Z,13.46
2023-05-14T19:24:37.627Z,13.42
2023-05-14T19:27:05.553Z,13.40
2023-05-14T19:29:33.114Z,13.38
2023-05-14T19:32:00.836Z,13.35
2023-05-14T19:34:28.531Z,13.33
2023-05-14T19:36:56.116Z,13.31
2023-05-14T19:39:23.686Z,13.27
2023-05-14T19:41:51.293Z,13.24
2023-05-14T19:44:18.958Z,13.21
2023-05-14T19:46:48.715Z,13.17
2023-05-14T19:49:16.444Z,13.11
2023-05-14T19:51:44.104Z,13.04
2023-05-14T19:54:11.620Z,13.02
2023-05-14T19:56:39.231Z,13.02
2023-05-14T19:59:06.746Z,13.00
2023-05-14T20:01:36.840Z,12.98
2023-05-14T20:04:04.611Z,12.97
2023-05-14T20:06:32.163Z,12.94
2023-05-14T20:09:00.750Z,12.92
2023-05-14T20:11:28.274Z,12.89
2023-05-14T20:13:55.818Z,12.86
2023-05-14T20:16:26.183Z,12.81
2023-05-14T20:18:54.182Z,12.73
2023-05-14T20:21:21.759Z,12.64
2023-05-14T20:23:49.315Z,12.62
2023-05-14T20:26:16.899Z,12.61
2023-05-14T20:28:44.473Z,12.61
2023-05-14T20:31:12.032Z,12.62
2023-05-14T20:33:39.557Z,12.62
2023-05-14T20:36:07.136Z,12.64
2023-05-14T20:38:34.763Z,12.64
2023-05-14T20:41:02.346Z,12.64
2023-05-14T20:43:29.888Z,12.63
2023-05-14T20:45:58.658Z,12.61
2023-05-14T20:48:26.304Z,12.60
2023-05-14T20:50:53.828Z,12.59
2023-05-14T20:53:21.413Z,12.55
2023-05-14T20:55:49.079Z,12.51
2023-05-14T20:58:16.616Z,12.47
2023-05-14T21:00:44.147Z,12.43
2023-05-14T21:03:11.852Z,12.41
2023-05-14T21:05:39.592Z,12.38
2023-05-14T21:08:07.738Z,12.36
2023-05-14T21:10:35.425Z,12.35
2023-05-14T21:13:02.978Z,12.34
2023-05-14T21:15:30.556Z,12.34
2023-05-14T21:17:58.310Z,12.32
2023-05-14T21:20:25.957Z,12.31
2023-05-14T21:22:53.508Z,12.29
2023-05-14T21:25:21.165Z,12.28
2023-05-14T21:27:48.722Z,12.28
2023-05-14T21:30:16.397Z,12.28
2023-05-14T21:32:43.952Z,12.27
2023-05-14T21:35:11.590Z,12.26
2023-05-14T21:37:39.293Z,12.26
2023-05-14T21:40:09.166Z,12.26
2023-05-14T21:42:36.617Z,12.28
2023-05-14T21:45:04.517Z,12.28
2023-05-14T21:47:33.010Z,12.29
2023-05-14T21:50:00.635Z,12.30
2023-05-14T21:52:28.170Z,12.31
2023-05-14T21:55:04.915Z,12.32
2023-05-14T21:57:34.657Z,12.34
2023-05-14T22:00:04.733Z,12.35
2023-05-14T22:02:32.399Z,12.34
2023-05-14T22:05:00.081Z,12.35
2023-05-14T22:07:27.637Z,12.34
2023-05-14T22:09:55.190Z,12.33
2023-05-14T22:12:22.746Z,12.31
2023-05-14T22:14:50.286Z,12.31
2023-05-14T22:17:17.852Z,12.29
2023-05-14T22:19:45.389Z,12.28
2023-05-14T22:22:12.950Z,12.27
2023-05-14T22:24:40.454Z,12.26
2023-05-14T22:27:07.999Z,12.25
2023-05-14T22:29:37.506Z,12.24
2023-05-14T22:32:06.647Z,12.22
2023-05-14T22:34:34.166Z,12.20
2023-05-14T22:37:01.941Z,12.20
2023-05-14T22:39:29.674Z,12.18
2023-05-14T22:41:57.281Z,12.16
2023-05-14T22:44:25.417Z,12.15
2023-05-14T22:46:53.727Z,12.12
2023-05-14T22:49:21.404Z,12.11
2023-05-14T22:51:50.089Z,12.09
2023-05-14T22:54:17.654Z,12.09
2023-05-14T22:56:46.001Z,12.08
2023-05-14T22:59:13.562Z,12.07
2023-05-14T23:01:41.401Z,12.06
2023-05-14T23:04:09.053Z,12.04
2023-05-14T23:06:37.290Z,12.04
2023-05-14T23:09:04.896Z,12.03
2023-05-14T23:11:32.408Z,12.02
2023-05-14T23:13:59.913Z,12.01
2023-05-14T23:16:27.562Z,12.00
2023-05-14T23:18:56.199Z,11.99
2023-05-14T23:21:23.954Z,11.98
2023-05-14T23:23:51.789Z,11.96
2023-05-14T23:26:19.401Z,11.95
2023-05-14T23:28:46.932Z,11.93
2023-05-14T23:31:14.461Z,11.90
2023-05-14T23:33:41.974Z,11.87
2023-05-14T23:36:09.746Z,11.81
2023-05-14T23:38:37.614Z,11.78
2023-05-14T23:41:05.183Z,11.76
2023-05-14T23:43:32.731Z,11.73
2023-05-14T23:46:00.878Z,11.69
2023-05-14T23:48:28.563Z,11.67
2023-05-14T23:50:58.005Z,11.67
2023-05-14T23:53:25.778Z,11.65
2023-05-14T23:55:53.349Z,11.64
2023-05-14T23:58:20.961Z,11.63
